Time;durP1;ratioP1;P1;durP2;ratioP2;P2;SDS_P1;SDS_P2;PMS_P1;PMS_P2;Temp;Humidity;BMP_temperature;BMP_pressure;BME280_temperature;BME280_humidity;BME280_pressure;Samples;Min_cycle;Max_cycle;Signal;HPM_P1;HPM_P2
2021/03/22 00:01:34;;;;;;;6.30;1.75;;;21.50;39.10;;;;;;20804354;23;20063;-24
2021/03/22 00:11:35;;;;;;;7.43;1.60;;;21.30;39.10;;;;;;20782211;28;20049;-20
2021/03/22 00:21:35;;;;;;;12.05;3.13;;;21.20;39.20;;;;;;20780668;28;20095;-20
2021/03/22 00:31:36;;;;;;;6.85;1.73;;;21.10;39.00;;;;;;20778553;28;20029;-23
2021/03/22 00:41:37;;;;;;;7.68;1.80;;;21.00;39.10;;;;;;20754442;28;20057;-20
2021/03/22 00:51:37;;;;;;;10.32;2.08;;;20.90;39.10;;;;;;20762956;28;20025;-21
2021/03/22 01:01:38;;;;;;;8.27;2.53;;;20.80;39.20;;;;;;20762544;28;20033;-21
2021/03/22 01:11:38;;;;;;;6.10;2.15;;;21.00;38.90;;;;;;20755026;28;20033;-21
2021/03/22 01:21:44;;;;;;;5.50;1.75;;;20.80;38.80;;;;;;20763023;28;20089;-22
2021/03/22 01:31:46;;;;;;;8.35;2.00;;;21.00;38.90;;;;;;20781217;28;20034;-21
2021/03/22 01:42:07;;;;;;;4.97;1.63;;;21.10;38.60;;;;;;20725141;28;20071;-25
2021/03/22 01:52:10;;;;;;;5.00;1.25;;;21.10;38.40;;;;;;20765863;28;20044;-20
2021/03/22 02:02:10;;;;;;;7.82;2.95;;;21.10;38.30;;;;;;20750431;28;20030;-23
2021/03/22 02:12:21;;;;;;;5.55;2.10;;;21.10;38.20;;;;;;20748092;28;20080;-19
2021/03/22 02:22:43;;;;;;;6.22;1.80;;;21.20;37.90;;;;;;20746559;28;20083;-22
2021/03/22 02:33:14;;;;;;;4.38;1.52;;;21.20;37.80;;;;;;20727102;28;20018;-22
2021/03/22 02:43:14;;;;;;;8.07;1.73;;;21.20;37.60;;;;;;20744667;28;20026;-22
2021/03/22 02:53:24;;;;;;;10.35;2.42;;;21.20;37.50;;;;;;20742355;28;20067;-24
2021/03/22 03:03:26;;;;;;;5.65;1.60;;;21.20;37.30;;;;;;20739075;28;20038;-25
2021/03/22 03:13:27;;;;;;;6.07;1.52;;;21.20;37.20;;;;;;20741784;28;20645;-22
2021/03/22 03:23:30;;;;;;;8.55;2.25;;;21.20;37.10;;;;;;20740127;28;20592;-22
2021/03/22 03:33:30;;;;;;;8.02;2.03;;;21.20;37.00;;;;;;20739260;28;20036;-21
2021/03/22 03:43:31;;;;;;;7.45;1.88;;;21.20;36.90;;;;;;20739380;28;20030;-24
2021/03/22 03:53:31;;;;;;;7.88;1.45;;;21.20;37.00;;;;;;20749306;28;20628;-23
2021/03/22 04:03:36;;;;;;;8.88;2.38;;;21.20;36.80;;;;;;20744547;28;20164;-20
2021/03/22 04:13:37;;;;;;;6.25;1.73;;;21.20;36.80;;;;;;20737385;28;20556;-23
2021/03/22 04:23:39;;;;;;;7.57;2.47;;;21.20;36.70;;;;;;20738128;28;20367;-19
2021/03/22 04:33:40;;;;;;;11.10;2.10;;;21.20;36.70;;;;;;20758813;28;20061;-24
2021/03/22 04:43:41;;;;;;;6.40;1.70;;;21.20;36.70;;;;;;20814320;28;20037;-23
2021/03/22 04:53:42;;;;;;;6.85;1.85;;;21.10;36.60;;;;;;20782766;28;20129;-23
2021/03/22 05:03:42;;;;;;;6.50;1.75;;;21.20;36.70;;;;;;20776696;28;20042;-22
2021/03/22 05:13:44;;;;;;;8.88;1.50;;;21.20;36.70;;;;;;20732289;28;20040;-23
2021/03/22 05:23:45;;;;;;;8.63;1.73;;;21.20;36.70;;;;;;20780221;28;20525;-23
2021/03/22 05:33:45;;;;;;;10.87;2.30;;;21.30;36.70;;;;;;20762155;28;20410;-20
2021/03/22 05:44:04;;;;;;;6.78;1.83;;;21.20;36.50;;;;;;20730020;28;20479;-22
2021/03/22 05:54:16;;;;;;;7.40;1.70;;;21.20;36.50;;;;;;20788762;28;20524;-22
2021/03/22 06:04:43;;;;;;;7.43;2.08;;;21.20;36.40;;;;;;20758537;23;20587;-20
2021/03/22 06:14:53;;;;;;;9.75;2.45;;;21.40;36.50;;;;;;20701995;28;20038;-21
2021/03/22 06:24:53;;;;;;;12.55;3.83;;;21.20;36.40;;;;;;20709340;28;20042;-25
2021/03/22 06:35:00;;;;;;;16.38;3.47;;;21.30;36.50;;;;;;20682876;28;20035;-24
2021/03/22 06:45:03;;;;;;;17.58;3.78;;;21.30;37.30;;;;;;20674116;28;20030;-24
2021/03/22 06:55:30;;;;;;;14.68;3.63;;;21.30;37.00;;;;;;20652371;28;20230;-26
2021/03/22 07:05:31;;;;;;;9.30;3.72;;;21.30;36.90;;;;;;20664110;28;20481;-23
2021/03/22 07:15:34;;;;;;;12.13;2.78;;;21.30;36.80;;;;;;20663518;28;20069;-25
2021/03/22 07:25:41;;;;;;;12.18;4.20;;;21.30;36.70;;;;;;20647142;28;20034;-20
2021/03/22 07:36:03;;;;;;;16.42;3.28;;;21.20;36.80;;;;;;20658752;28;20030;-24
2021/03/22 07:46:13;;;;;;;17.00;3.70;;;21.20;37.40;;;;;;20661373;28;20096;-24
2021/03/22 07:56:38;;;;;;;15.48;2.72;;;21.20;37.40;;;;;;20659753;28;20023;-25
2021/03/22 08:06:54;;;;;;;15.10;3.65;;;21.10;36.90;;;;;;20658141;28;20042;-26
2021/03/22 08:17:13;;;;;;;11.65;2.92;;;21.10;37.00;;;;;;20656795;28;20035;-24
2021/03/22 08:27:18;;;;;;;8.50;2.45;;;21.00;37.10;;;;;;20667322;28;20078;-25
2021/03/22 08:37:44;;;;;;;9.75;3.35;;;21.00;37.40;;;;;;20674034;28;20038;-24
2021/03/22 08:48:09;;;;;;;8.85;2.30;;;20.80;37.50;;;;;;20684257;28;20030;-22
2021/03/22 08:58:31;;;;;;;8.00;3.17;;;20.50;37.60;;;;;;20660501;28;20049;-21
2021/03/22 09:08:38;;;;;;;10.45;3.15;;;20.60;37.90;;;;;;20670508;28;20553;-25
2021/03/22 09:19:03;;;;;;;6.32;1.77;;;20.50;38.10;;;;;;20669051;28;20030;-23
2021/03/22 09:29:25;;;;;;;10.40;3.80;;;20.40;38.30;;;;;;20682679;28;20534;-23
2021/03/22 09:39:25;;;;;;;7.80;2.75;;;20.30;38.30;;;;;;20666185;28;20027;-22
2021/03/22 09:49:27;;;;;;;5.75;1.65;;;20.20;38.30;;;;;;20668218;28;20422;-22
2021/03/22 09:59:33;;;;;;;6.50;2.60;;;20.20;38.50;;;;;;20666032;28;20042;-22
2021/03/22 10:10:00;;;;;;;5.00;1.98;;;20.20;38.60;;;;;;20665760;28;20066;-24
2021/03/22 10:20:18;;;;;;;8.90;3.03;;;20.10;38.70;;;;;;20667257;28;20034;-19
2021/03/22 10:30:23;;;;;;;5.83;1.57;;;20.10;38.70;;;;;;20664582;28;20076;-19
2021/03/22 10:40:35;;;;;;;4.45;2.10;;;20.00;38.80;;;;;;20664916;28;20026;-22
2021/03/22 10:50:36;;;;;;;4.22;1.45;;;20.00;38.90;;;;;;20662078;28;20449;-23
2021/03/22 11:00:40;;;;;;;5.03;1.40;;;20.00;39.00;;;;;;20661788;28;20054;-26
2021/03/22 11:10:41;;;;;;;3.58;1.60;;;19.90;39.00;;;;;;20664809;28;20037;-22
2021/03/22 11:20:48;;;;;;;5.13;1.52;;;19.90;39.10;;;;;;20661882;28;20057;-20
2021/03/22 11:30:49;;;;;;;5.53;1.27;;;19.90;39.20;;;;;;20661067;28;20053;-23
2021/03/22 11:40:50;;;;;;;4.15;1.25;;;19.90;39.20;;;;;;20660868;28;20065;-22
2021/03/22 11:50:53;;;;;;;2.78;1.23;;;19.80;39.20;;;;;;20662040;28;20037;-22
2021/03/22 12:00:55;;;;;;;3.00;1.33;;;19.80;39.30;;;;;;20673958;23;20058;-22
2021/03/22 12:10:55;;;;;;;2.50;1.13;;;19.80;39.40;;;;;;20682747;28;20030;-21
2021/03/22 12:20:56;;;;;;;3.42;1.20;;;19.80;39.40;;;;;;20737071;28;20541;-22
2021/03/22 12:30:57;;;;;;;2.83;0.90;;;19.80;39.40;;;;;;20736636;28;20033;-20
2021/03/22 12:40:57;;;;;;;2.55;1.08;;;19.70;39.40;;;;;;20737661;28;20026;-20
2021/03/22 12:50:58;;;;;;;3.20;1.00;;;19.70;39.90;;;;;;20735851;28;20084;-21
2021/03/22 13:00:59;;;;;;;2.83;1.10;;;19.80;39.30;;;;;;20735890;28;20041;-22
2021/03/22 13:11:00;;;;;;;6.15;1.75;;;19.90;39.30;;;;;;20749780;28;20038;-20
2021/03/22 13:21:07;;;;;;;7.70;1.65;;;19.90;39.40;;;;;;20749375;28;20030;-20
2021/03/22 13:31:11;;;;;;;4.20;1.40;;;19.90;39.80;;;;;;20729099;28;20053;-19
2021/03/22 13:41:31;;;;;;;5.78;1.55;;;19.90;40.10;;;;;;20748043;28;20112;-20
2021/03/22 13:51:36;;;;;;;6.28;1.10;;;19.90;40.00;;;;;;20744568;28;20025;-22
2021/03/22 14:01:37;;;;;;;5.25;0.82;;;19.90;40.00;;;;;;20744136;28;20130;-22
2021/03/22 14:11:37;;;;;;;3.05;1.25;;;19.90;40.30;;;;;;20746152;28;20029;-19
2021/03/22 14:21:38;;;;;;;7.10;1.40;;;19.90;40.40;;;;;;20743596;28;20056;-22
2021/03/22 14:31:39;;;;;;;6.63;1.63;;;19.90;40.50;;;;;;20744719;28;20088;-19
2021/03/22 14:41:39;;;;;;;3.17;0.95;;;20.00;40.90;;;;;;20745708;28;20044;-22
2021/03/22 14:51:40;;;;;;;13.90;1.42;;;20.40;40.10;;;;;;20742869;28;20394;-19
2021/03/22 15:01:41;;;;;;;8.05;1.45;;;21.10;39.30;;;;;;20741175;28;20080;-22
2021/03/22 15:11:42;;;;;;;3.83;1.13;;;21.70;37.90;;;;;;20737632;28;20026;-20
2021/03/22 15:21:42;;;;;;;4.00;0.77;;;22.40;36.90;;;;;;20737645;28;20061;-19
2021/03/22 15:31:43;;;;;;;3.70;1.33;;;22.90;36.00;;;;;;20718130;28;20060;-21
2021/03/22 15:41:44;;;;;;;7.10;0.95;;;23.40;35.40;;;;;;20734182;28;20041;-21
2021/03/22 15:51:44;;;;;;;7.20;1.40;;;23.70;34.80;;;;;;20736100;28;20053;-20
2021/03/22 16:01:45;;;;;;;7.07;1.10;;;23.70;34.80;;;;;;20715723;28;617228;-19
2021/03/22 16:11:46;;;;;;;3.53;0.95;;;23.60;35.10;;;;;;20739464;28;20026;-21
2021/03/22 16:21:47;;;;;;;4.63;0.70;;;23.60;35.20;;;;;;20737515;28;20034;-18
2021/03/22 16:31:47;;;;;;;5.15;1.70;;;23.50;35.40;;;;;;20736876;28;20065;-20
2021/03/22 16:41:48;;;;;;;4.53;2.08;;;23.60;35.40;;;;;;20744368;28;20521;-19
2021/03/22 16:51:49;;;;;;;3.53;1.10;;;23.50;35.70;;;;;;20739716;28;20057;-19
2021/03/22 17:01:49;;;;;;;3.20;0.80;;;23.50;35.60;;;;;;20743966;28;20038;-18
2021/03/22 17:11:50;;;;;;;3.90;1.33;;;23.40;35.90;;;;;;20751815;28;20092;-21
2021/03/22 17:21:51;;;;;;;2.90;1.87;;;23.30;35.90;;;;;;20747895;28;20168;-21
2021/03/22 17:31:51;;;;;;;3.65;0.95;;;23.30;36.20;;;;;;20749136;28;20453;-19
2021/03/22 17:41:52;;;;;;;4.47;1.15;;;23.30;36.00;;;;;;20745581;28;20087;-19
2021/03/22 17:51:54;;;;;;;4.47;1.40;;;23.20;36.40;;;;;;20745298;28;20061;-21
2021/03/22 18:01:55;;;;;;;4.03;1.20;;;23.30;36.20;;;;;;20744873;28;20469;-19
2021/03/22 18:11:55;;;;;;;4.15;1.55;;;23.20;35.80;;;;;;20746541;28;20525;-21
2021/03/22 18:21:56;;;;;;;6.93;2.33;;;23.30;36.30;;;;;;20745504;28;20037;-21
2021/03/22 18:31:57;;;;;;;5.88;2.40;;;23.50;37.70;;;;;;20744180;28;20117;-19
2021/03/22 18:41:58;;;;;;;11.57;1.88;;;23.40;38.30;;;;;;20745747;28;20117;-19
2021/03/22 18:51:59;;;;;;;6.35;1.35;;;23.50;38.30;;;;;;20746319;28;20145;-19
2021/03/22 19:02:00;;;;;;;4.50;1.08;;;23.40;38.70;;;;;;20725052;28;20054;-19
2021/03/22 19:12:01;;;;;;;6.05;1.23;;;23.30;38.80;;;;;;20742344;28;20038;-21
2021/03/22 19:22:01;;;;;;;9.82;1.95;;;23.30;38.30;;;;;;20741297;28;20084;-21
2021/03/22 19:32:02;;;;;;;8.60;2.15;;;23.20;39.60;;;;;;20743119;28;20103;-19
2021/03/22 19:42:03;;;;;;;7.07;1.90;;;23.50;39.60;;;;;;20741865;28;20088;-19
2021/03/22 19:52:04;;;;;;;17.08;1.98;;;23.90;39.50;;;;;;20740857;28;20033;-21
2021/03/22 20:02:06;;;;;;;6.28;2.97;;;24.10;39.20;;;;;;20730097;28;20029;-21
2021/03/22 20:12:08;;;;;;;7.35;1.75;;;24.00;39.30;;;;;;20734575;28;20456;-21
2021/03/22 20:22:09;;;;;;;4.00;1.73;;;23.90;39.60;;;;;;20744016;28;20032;-19
2021/03/22 20:32:10;;;;;;;6.55;2.75;;;24.00;40.10;;;;;;20748273;28;20026;-19
2021/03/22 20:42:11;;;;;;;6.63;1.67;;;23.90;40.30;;;;;;20745533;28;20030;-20
2021/03/22 20:52:12;;;;;;;7.35;2.03;;;24.00;40.00;;;;;;20748414;28;20437;-19
2021/03/22 21:02:12;;;;;;;17.50;2.28;;;24.00;40.20;;;;;;20752168;28;20026;-21
2021/03/22 21:12:13;;;;;;;4.93;1.23;;;24.00;39.90;;;;;;20741730;28;20048;-19
2021/03/22 21:22:14;;;;;;;5.30;1.58;;;23.90;40.20;;;;;;20745926;28;20032;-20
2021/03/22 21:32:14;;;;;;;2.80;1.13;;;23.80;40.10;;;;;;20749186;28;20072;-19
2021/03/22 21:42:15;;;;;;;8.73;2.10;;;23.80;40.20;;;;;;20730304;28;20054;-20
2021/03/22 21:52:16;;;;;;;4.85;1.35;;;23.70;40.20;;;;;;20730731;28;20053;-19
2021/03/22 22:02:17;;;;;;;4.20;1.00;;;23.60;40.10;;;;;;20729664;28;20044;-21
2021/03/22 22:12:21;;;;;;;4.47;1.30;;;23.60;40.30;;;;;;20748087;28;20030;-20
2021/03/22 22:22:22;;;;;;;3.42;1.30;;;23.60;40.20;;;;;;20748689;28;20025;-20
2021/03/22 22:32:22;;;;;;;4.65;1.60;;;23.50;40.60;;;;;;20749142;28;20048;-20
2021/03/22 22:42:23;;;;;;;3.53;1.00;;;23.20;40.80;;;;;;20751858;28;20044;-20
2021/03/22 22:52:23;;;;;;;4.20;1.00;;;23.00;41.60;;;;;;20750439;28;20030;-19
2021/03/22 23:02:24;;;;;;;5.50;1.48;;;22.90;41.20;;;;;;20760919;28;20032;-20
2021/03/22 23:12:26;;;;;;;3.90;1.50;;;22.70;41.50;;;;;;20762342;28;20398;-19
2021/03/22 23:22:27;;;;;;;2.40;0.82;;;22.50;41.70;;;;;;20740652;28;20034;-20
2021/03/22 23:32:27;;;;;;;2.03;0.88;;;22.10;42.00;;;;;;20741426;28;20033;-20
2021/03/22 23:42:28;;;;;;;4.97;1.35;;;22.00;42.00;;;;;;20737640;28;20033;-20
2021/03/22 23:52:28;;;;;;;5.35;1.10;;;21.90;41.90;;;;;;20733946;28;20029;-19
